KBWI

Baltimore Washington International Thurgood Marshall Airport

Airport
ICAO code
KBWI
IATA Code
BWI
Summary
ICAO Region
NAM
ICAO Territory
Location

Anne Arundel County, Maryland

Serving
Baltimore and Washington DC
Elevation
146 ft
Coordinates
39° 10' 24" N , 76° 40' 5" W
KCC
Airport WX
Cumulonimbus
Metar
KBWI 041054Z 10003KT 10SM OVC055 10/07 A3028 RMK AO2 SLP252 BINOVC T01000072 $

Description

International airport located 9 nm south of downtown Baltimore, USA, serving Baltimore and Washington DC.

Airport map

Aerial View

SKYbrary Partners:

Safety knowledge contributed by: